Time;durP1;ratioP1;P1;durP2;ratioP2;P2;SDS_P1;SDS_P2;PMS_P1;PMS_P2;Temp;Humidity;BMP_temperature;BMP_pressure;BME280_temperature;BME280_humidity;BME280_pressure;Samples;Min_cycle;Max_cycle;Signal;HPM_P1;HPM_P2
2023/03/17 00:00:34;;;;;;;1.42;1.27;;;;;;;;;;5016169;28;20112;-83
2023/03/17 00:03:00;;;;;;;2.95;1.85;;;;;;;;;;5014079;28;20049;-84
2023/03/17 00:05:29;;;;;;;3.00;1.45;;;;;;;;;;5009072;28;20019;-83
2023/03/17 00:07:57;;;;;;;3.72;2.10;;;;;;;;;;4991818;28;20041;-83
2023/03/17 00:10:25;;;;;;;2.80;2.08;;;;;;;;;;5008102;28;20046;-83
2023/03/17 00:12:53;;;;;;;2.50;1.60;;;;;;;;;;5008768;28;20036;-83
2023/03/17 00:15:20;;;;;;;1.63;1.30;;;;;;;;;;5004495;28;20457;-82
2023/03/17 00:17:47;;;;;;;1.75;1.30;;;;;;;;;;5006451;28;20150;-83
2023/03/17 00:20:18;;;;;;;1.42;1.20;;;;;;;;;;5008074;28;20222;-83
2023/03/17 00:22:44;;;;;;;2.33;1.23;;;;;;;;;;5005741;28;20033;-83
2023/03/17 00:25:18;;;;;;;3.38;1.73;;;;;;;;;;5002610;28;20083;-83
2023/03/17 00:27:44;;;;;;;1.42;1.20;;;;;;;;;;5010742;28;20045;-83
2023/03/17 00:30:10;;;;;;;4.85;1.65;;;;;;;;;;5007995;28;20038;-83
2023/03/17 00:32:38;;;;;;;1.52;1.10;;;;;;;;;;5008966;28;20037;-83
2023/03/17 00:35:10;;;;;;;2.13;1.63;;;;;;;;;;5006360;28;20156;-83
2023/03/17 00:37:36;;;;;;;3.53;1.60;;;;;;;;;;5008330;28;20457;-83
2023/03/17 00:40:02;;;;;;;2.67;1.48;;;;;;;;;;5010104;28;20076;-83
2023/03/17 00:42:28;;;;;;;1.60;1.33;;;;;;;;;;5011738;28;20108;-82
2023/03/17 00:44:55;;;;;;;2.88;1.52;;;;;;;;;;5007953;28;20387;-83
2023/03/17 00:47:21;;;;;;;2.65;1.60;;;;;;;;;;5004368;28;20550;-82
2023/03/17 00:49:47;;;;;;;3.78;1.60;;;;;;;;;;5013656;28;20084;-83
2023/03/17 00:52:13;;;;;;;3.80;1.77;;;;;;;;;;5012883;28;20030;-83
2023/03/17 00:54:39;;;;;;;2.60;1.30;;;;;;;;;;5014149;28;20022;-83
2023/03/17 00:57:08;;;;;;;1.58;1.40;;;;;;;;;;5004346;28;20107;-83
2023/03/17 00:59:40;;;;;;;3.25;1.30;;;;;;;;;;5015284;28;20030;-82
2023/03/17 01:02:06;;;;;;;2.42;1.63;;;;;;;;;;5006170;28;20029;-79
2023/03/17 01:04:32;;;;;;;3.13;2.38;;;;;;;;;;5020758;28;20423;-75
2023/03/17 01:06:59;;;;;;;1.90;1.25;;;;;;;;;;5010460;28;20564;-77
2023/03/17 01:09:26;;;;;;;3.55;1.45;;;;;;;;;;5016342;28;20057;-77
2023/03/17 01:11:53;;;;;;;2.28;1.42;;;;;;;;;;5005295;28;20033;-77
2023/03/17 01:14:20;;;;;;;2.40;1.45;;;;;;;;;;5005894;28;20029;-77
2023/03/17 01:16:46;;;;;;;2.63;1.50;;;;;;;;;;5004999;28;20476;-77
2023/03/17 01:19:12;;;;;;;2.88;1.70;;;;;;;;;;5008752;28;20037;-77
2023/03/17 01:21:39;;;;;;;3.28;1.50;;;;;;;;;;5007823;28;20026;-77
2023/03/17 01:24:05;;;;;;;4.15;1.85;;;;;;;;;;5005550;28;20026;-76
2023/03/17 01:26:31;;;;;;;2.38;1.45;;;;;;;;;;5009449;28;20052;-76
2023/03/17 01:28:57;;;;;;;1.73;1.48;;;;;;;;;;5004120;28;20117;-77
2023/03/17 01:31:25;;;;;;;2.42;1.42;;;;;;;;;;5006579;28;20049;-77
2023/03/17 01:33:51;;;;;;;2.22;1.35;;;;;;;;;;5003981;28;20917;-77
2023/03/17 01:36:20;;;;;;;5.05;1.85;;;;;;;;;;5005061;28;20034;-76
2023/03/17 01:38:47;;;;;;;3.83;1.77;;;;;;;;;;5007879;28;20059;-76
2023/03/17 01:41:13;;;;;;;6.60;1.80;;;;;;;;;;5007815;28;20018;-77
2023/03/17 01:43:39;;;;;;;1.70;1.40;;;;;;;;;;5008329;28;20050;-76
2023/03/17 01:46:20;;;;;;;2.03;1.35;;;;;;;;;;5005039;28;20100;-76
2023/03/17 01:49:03;;;;;;;3.15;1.48;;;;;;;;;;5003537;28;20026;-76
2023/03/17 01:51:30;;;;;;;2.03;1.48;;;;;;;;;;5013098;28;20056;-76
2023/03/17 01:53:57;;;;;;;3.17;1.45;;;;;;;;;;4995604;28;20036;-76
2023/03/17 01:56:23;;;;;;;2.13;1.73;;;;;;;;;;5001666;28;20022;-76
2023/03/17 01:58:51;;;;;;;2.22;1.45;;;;;;;;;;5005681;28;20109;-76
2023/03/17 02:01:19;;;;;;;2.13;1.58;;;;;;;;;;5016853;28;20128;-76
2023/03/17 02:03:45;;;;;;;2.25;1.40;;;;;;;;;;5005070;28;20100;-76
2023/03/17 02:06:12;;;;;;;4.10;1.58;;;;;;;;;;5007768;28;20062;-76
2023/03/17 02:08:38;;;;;;;4.30;1.65;;;;;;;;;;5020544;28;20042;-76
2023/03/17 02:11:04;;;;;;;2.20;1.65;;;;;;;;;;5006727;28;20554;-76
2023/03/17 02:13:31;;;;;;;4.43;2.15;;;;;;;;;;5024529;28;20033;-76
2023/03/17 02:15:57;;;;;;;2.92;1.60;;;;;;;;;;5014706;28;20476;-76
2023/03/17 02:18:26;;;;;;;2.85;1.55;;;;;;;;;;5005092;28;20097;-76
2023/03/17 02:21:11;;;;;;;2.40;1.50;;;;;;;;;;5010082;28;20109;-76
2023/03/17 02:23:37;;;;;;;2.38;1.50;;;;;;;;;;5002595;28;20130;-76
2023/03/17 02:26:04;;;;;;;3.28;1.40;;;;;;;;;;5008588;28;20057;-77
2023/03/17 02:28:30;;;;;;;3.38;1.58;;;;;;;;;;5024513;28;20045;-76
2023/03/17 02:30:56;;;;;;;1.60;1.50;;;;;;;;;;5008110;28;20037;-76
2023/03/17 02:33:22;;;;;;;3.67;1.35;;;;;;;;;;5006921;28;20476;-76
2023/03/17 02:35:48;;;;;;;5.78;1.42;;;;;;;;;;5016413;28;20033;-76
2023/03/17 02:38:14;;;;;;;2.28;1.58;;;;;;;;;;5012267;28;20045;-76
2023/03/17 02:40:40;;;;;;;2.60;1.60;;;;;;;;;;5002495;28;20026;-76
2023/03/17 02:43:07;;;;;;;2.25;1.80;;;;;;;;;;5007185;28;20042;-76
2023/03/17 02:45:33;;;;;;;1.67;1.58;;;;;;;;;;5007966;28;20030;-76
2023/03/17 02:48:02;;;;;;;1.98;1.33;;;;;;;;;;4999376;28;20920;-76
2023/03/17 02:50:29;;;;;;;2.55;1.58;;;;;;;;;;5004177;28;20072;-76
2023/03/17 02:52:55;;;;;;;1.63;1.23;;;;;;;;;;5012823;28;20029;-76
2023/03/17 02:55:21;;;;;;;2.25;1.27;;;;;;;;;;5012129;28;20025;-76
2023/03/17 02:57:47;;;;;;;3.10;1.45;;;;;;;;;;5000039;28;20037;-76
2023/03/17 03:00:13;;;;;;;2.50;1.60;;;;;;;;;;5008530;28;20219;-76
2023/03/17 03:02:39;;;;;;;2.67;1.77;;;;;;;;;;5005078;28;20080;-76
2023/03/17 03:05:06;;;;;;;2.53;1.27;;;;;;;;;;5014022;28;20112;-76
2023/03/17 03:07:32;;;;;;;1.77;1.38;;;;;;;;;;5027585;28;20404;-76
2023/03/17 03:09:58;;;;;;;3.35;1.50;;;;;;;;;;5014977;28;20030;-76
2023/03/17 03:12:25;;;;;;;3.08;1.58;;;;;;;;;;5002192;28;20038;-76
2023/03/17 03:14:56;;;;;;;2.90;1.80;;;;;;;;;;5000640;28;20022;-77
2023/03/17 03:17:22;;;;;;;;;;;;;;;;;;5007749;28;20401;-76
2023/03/17 03:19:51;;;;;;;1.58;1.27;;;;;;;;;;5000722;28;20451;-76
2023/03/17 03:22:17;;;;;;;1.98;1.23;;;;;;;;;;4999453;28;20029;-76
2023/03/17 03:24:42;;;;;;;4.45;1.75;;;;;;;;;;4999553;28;20022;-76
2023/03/17 03:27:08;;;;;;;1.67;1.17;;;;;;;;;;5013155;28;20140;-76
2023/03/17 03:29:35;;;;;;;1.67;1.33;;;;;;;;;;5011072;28;20436;-76
2023/03/17 03:32:01;;;;;;;1.63;1.33;;;;;;;;;;5000692;28;20058;-76
2023/03/17 03:34:27;;;;;;;2.20;1.17;;;;;;;;;;5011082;28;20060;-76
2023/03/17 03:36:53;;;;;;;1.85;1.13;;;;;;;;;;5008405;28;20030;-75
2023/03/17 03:39:19;;;;;;;2.35;1.52;;;;;;;;;;5006557;28;20030;-76
2023/03/17 03:41:51;;;;;;;1.67;1.20;;;;;;;;;;5011042;28;20022;-76
2023/03/17 03:44:17;;;;;;;3.10;1.20;;;;;;;;;;5009599;28;20551;-76
2023/03/17 03:46:43;;;;;;;1.45;1.30;;;;;;;;;;5007587;28;20030;-76
2023/03/17 03:49:11;;;;;;;2.03;1.50;;;;;;;;;;5024574;28;20088;-76
2023/03/17 03:51:43;;;;;;;1.67;1.30;;;;;;;;;;5007451;28;20087;-76
2023/03/17 03:54:09;;;;;;;2.00;1.40;;;;;;;;;;5006185;28;20109;-76
2023/03/17 03:56:37;;;;;;;3.28;1.50;;;;;;;;;;5013918;28;20284;-76
2023/03/17 03:59:03;;;;;;;1.85;1.38;;;;;;;;;;5010832;28;21202;-76
2023/03/17 04:01:29;;;;;;;1.35;1.10;;;;;;;;;;5008886;28;20038;-76
2023/03/17 04:03:55;;;;;;;3.33;1.65;;;;;;;;;;5009088;28;20113;-76
2023/03/17 04:06:23;;;;;;;1.60;1.40;;;;;;;;;;5009810;28;20033;-75
2023/03/17 04:08:49;;;;;;;3.85;1.73;;;;;;;;;;5016972;28;20083;-76
2023/03/17 04:11:15;;;;;;;2.60;1.40;;;;;;;;;;5006898;28;20038;-76
2023/03/17 04:13:41;;;;;;;1.23;1.10;;;;;;;;;;5007823;28;20026;-76
2023/03/17 04:16:07;;;;;;;2.00;1.20;;;;;;;;;;5006257;28;20030;-76
2023/03/17 04:18:34;;;;;;;2.10;1.40;;;;;;;;;;5018037;28;20037;-77
2023/03/17 04:21:07;;;;;;;4.70;1.67;;;;;;;;;;5009170;28;20723;-76
2023/03/17 04:23:33;;;;;;;1.35;1.10;;;;;;;;;;4997139;28;20540;-76
2023/03/17 04:25:59;;;;;;;1.73;1.10;;;;;;;;;;5005167;28;20842;-76
2023/03/17 04:28:25;;;;;;;2.92;1.23;;;;;;;;;;5016132;28;20209;-76
2023/03/17 04:30:53;;;;;;;3.05;1.20;;;;;;;;;;5009843;28;20018;-76
2023/03/17 04:33:20;;;;;;;1.30;1.15;;;;;;;;;;5000954;28;20299;-76
2023/03/17 04:35:49;;;;;;;1.45;1.30;;;;;;;;;;5006998;28;20022;-76
2023/03/17 04:38:15;;;;;;;1.30;1.08;;;;;;;;;;5005665;28;20137;-77
2023/03/17 04:40:41;;;;;;;1.30;1.15;;;;;;;;;;5006320;28;20021;-76
2023/03/17 04:43:07;;;;;;;2.22;1.10;;;;;;;;;;5009737;28;20512;-76
2023/03/17 04:45:33;;;;;;;1.42;1.08;;;;;;;;;;5009834;28;20412;-76
2023/03/17 04:47:59;;;;;;;1.05;0.95;;;;;;;;;;5010677;28;20041;-76
2023/03/17 04:50:25;;;;;;;1.27;1.00;;;;;;;;;;5006518;28;20029;-76
2023/03/17 04:52:51;;;;;;;2.28;1.25;;;;;;;;;;5015531;28;20044;-76
2023/03/17 04:55:17;;;;;;;1.88;1.00;;;;;;;;;;4990630;28;20548;-76
2023/03/17 04:57:43;;;;;;;1.17;1.05;;;;;;;;;;5005185;28;20045;-76
2023/03/17 05:00:11;;;;;;;2.42;1.15;;;;;;;;;;5022619;28;20044;-76
2023/03/17 05:02:37;;;;;;;0.80;0.80;;;;;;;;;;5018078;28;20017;-76
2023/03/17 05:05:04;;;;;;;3.33;1.17;;;;;;;;;;5023262;28;20029;-76
2023/03/17 05:07:30;;;;;;;2.17;1.30;;;;;;;;;;5014010;28;20091;-76
2023/03/17 05:09:56;;;;;;;2.30;1.10;;;;;;;;;;5007676;28;20041;-76
2023/03/17 05:12:22;;;;;;;2.50;1.20;;;;;;;;;;5003058;28;20034;-76
2023/03/17 05:14:48;;;;;;;3.03;1.23;;;;;;;;;;5008150;28;20154;-76
2023/03/17 05:17:15;;;;;;;3.10;1.00;;;;;;;;;;5006457;28;20104;-76
2023/03/17 05:19:44;;;;;;;1.55;1.10;;;;;;;;;;5006040;28;20034;-76
2023/03/17 05:22:10;;;;;;;1.33;1.05;;;;;;;;;;4998258;28;20041;-76
2023/03/17 05:24:46;;;;;;;1.67;1.00;;;;;;;;;;5004943;28;20030;-76
2023/03/17 05:27:12;;;;;;;2.53;1.10;;;;;;;;;;5005217;28;20199;-76
2023/03/17 05:29:38;;;;;;;1.40;1.30;;;;;;;;;;5004582;28;20679;-76
2023/03/17 05:32:04;;;;;;;1.73;1.15;;;;;;;;;;5009297;28;20053;-77
2023/03/17 05:34:30;;;;;;;1.17;1.05;;;;;;;;;;5010793;28;20057;-74
2023/03/17 05:36:56;;;;;;;1.45;0.90;;;;;;;;;;5005520;28;20436;-72
2023/03/17 05:39:22;;;;;;;1.83;1.08;;;;;;;;;;5002647;28;20081;-74
2023/03/17 05:41:50;;;;;;;2.28;1.13;;;;;;;;;;5003910;28;20469;-73
2023/03/17 05:44:16;;;;;;;1.20;1.10;;;;;;;;;;5003817;28;20044;-74
2023/03/17 05:46:42;;;;;;;2.13;1.38;;;;;;;;;;5010864;28;20026;-73
2023/03/17 05:49:07;;;;;;;0.65;0.65;;;;;;;;;;5006425;28;20261;-74
2023/03/17 05:51:34;;;;;;;1.10;0.80;;;;;;;;;;5005776;28;20136;-74
2023/03/17 05:54:00;;;;;;;0.82;0.82;;;;;;;;;;5026406;28;20022;-73
2023/03/17 05:56:32;;;;;;;0.93;0.88;;;;;;;;;;5021875;28;20507;-74
2023/03/17 05:58:58;;;;;;;3.88;1.55;;;;;;;;;;5008564;28;20030;-73
2023/03/17 06:01:24;;;;;;;1.50;1.20;;;;;;;;;;5007396;28;20440;-74
2023/03/17 06:03:52;;;;;;;1.27;0.93;;;;;;;;;;5006657;28;20520;-73
2023/03/17 06:06:18;;;;;;;2.67;1.13;;;;;;;;;;5006926;28;20558;-74
2023/03/17 06:08:44;;;;;;;1.60;1.40;;;;;;;;;;5027653;28;20033;-73
2023/03/17 06:11:10;;;;;;;1.98;1.20;;;;;;;;;;5014894;28;20373;-73
2023/03/17 06:13:36;;;;;;;1.38;1.23;;;;;;;;;;5014249;28;20088;-74
2023/03/17 06:16:02;;;;;;;2.03;1.00;;;;;;;;;;5018301;28;20711;-74
2023/03/17 06:18:28;;;;;;;1.70;1.10;;;;;;;;;;5018713;28;20030;-80
2023/03/17 06:20:54;;;;;;;3.10;1.10;;;;;;;;;;5006556;28;20033;-80
2023/03/17 06:23:22;;;;;;;3.15;1.15;;;;;;;;;;5006038;28;20033;-81
2023/03/17 06:25:48;;;;;;;5.15;1.10;;;;;;;;;;5008890;28;20068;-81
2023/03/17 06:28:14;;;;;;;1.35;0.90;;;;;;;;;;5021215;28;20057;-81
2023/03/17 06:30:40;;;;;;;1.80;1.05;;;;;;;;;;5021668;28;20029;-81
2023/03/17 06:33:06;;;;;;;0.98;0.80;;;;;;;;;;5008487;28;20030;-80
2023/03/17 06:35:32;;;;;;;2.83;1.10;;;;;;;;;;5008063;28;20520;-81
2023/03/17 06:37:59;;;;;;;1.23;1.10;;;;;;;;;;5007141;28;20033;-81
2023/03/17 06:40:25;;;;;;;1.35;0.80;;;;;;;;;;5002551;28;20461;-80
2023/03/17 06:42:52;;;;;;;0.98;0.90;;;;;;;;;;5007161;28;20046;-81
2023/03/17 06:45:18;;;;;;;3.38;0.90;;;;;;;;;;5009391;28;20496;-80
2023/03/17 06:47:43;;;;;;;1.80;0.95;;;;;;;;;;5007998;28;20037;-80
2023/03/17 06:50:12;;;;;;;3.65;1.10;;;;;;;;;;5007651;28;20574;-80
2023/03/17 06:52:39;;;;;;;1.30;1.20;;;;;;;;;;5008036;28;20092;-82
2023/03/17 06:55:09;;;;;;;1.13;0.93;;;;;;;;;;5006957;28;20049;-81
2023/03/17 06:57:38;;;;;;;1.25;1.00;;;;;;;;;;5005343;28;20061;-80
2023/03/17 07:00:05;;;;;;;2.60;1.30;;;;;;;;;;5001124;28;20080;-80
2023/03/17 07:02:32;;;;;;;2.75;1.00;;;;;;;;;;5016623;28;20021;-80
2023/03/17 07:04:59;;;;;;;2.38;1.13;;;;;;;;;;4997714;28;20408;-80
2023/03/17 07:07:25;;;;;;;1.90;1.30;;;;;;;;;;5011275;28;20044;-81
2023/03/17 07:09:57;;;;;;;2.83;1.15;;;;;;;;;;5027295;28;20038;-80
2023/03/17 07:12:23;;;;;;;0.95;0.85;;;;;;;;;;5011707;28;20143;-80
2023/03/17 07:14:49;;;;;;;1.10;0.90;;;;;;;;;;5011339;28;20698;-80
2023/03/17 07:17:15;;;;;;;3.08;1.10;;;;;;;;;;5011319;28;20506;-80
2023/03/17 07:19:41;;;;;;;1.67;1.10;;;;;;;;;;5028430;28;20022;-80
2023/03/17 07:22:07;;;;;;;1.17;1.00;;;;;;;;;;5021866;28;20032;-81
2023/03/17 07:24:33;;;;;;;2.30;1.42;;;;;;;;;;5012279;28;20092;-81
2023/03/17 07:26:59;;;;;;;1.60;1.17;;;;;;;;;;5021151;28;20055;-81
2023/03/17 07:29:27;;;;;;;2.55;1.15;;;;;;;;;;5006338;28;20480;-81
2023/03/17 07:31:53;;;;;;;1.30;1.00;;;;;;;;;;5012370;28;20065;-81
2023/03/17 07:34:28;;;;;;;2.53;1.20;;;;;;;;;;5028106;28;20029;-81
2023/03/17 07:36:54;;;;;;;1.65;1.20;;;;;;;;;;5021037;28;20385;-81
2023/03/17 07:39:20;;;;;;;1.83;0.90;;;;;;;;;;5009236;28;20022;-80
2023/03/17 07:41:51;;;;;;;1.00;1.00;;;;;;;;;;5008982;28;20056;-80
2023/03/17 07:44:18;;;;;;;1.42;0.90;;;;;;;;;;5007105;28;20030;-81
2023/03/17 07:46:46;;;;;;;2.25;1.10;;;;;;;;;;5003883;28;20037;-81
2023/03/17 07:49:12;;;;;;;0.85;0.75;;;;;;;;;;5002246;28;20034;-88
2023/03/17 07:51:41;;;;;;;1.90;1.30;;;;;;;;;;5000468;28;20041;-85
2023/03/17 07:54:08;;;;;;;1.73;0.82;;;;;;;;;;5004153;28;20026;-84
2023/03/17 07:56:34;;;;;;;1.35;0.73;;;;;;;;;;5004989;28;20045;-85
2023/03/17 07:59:00;;;;;;;0.95;0.88;;;;;;;;;;5007906;28;20401;-83
2023/03/17 08:01:27;;;;;;;1.98;1.08;;;;;;;;;;5000766;28;20033;-85
2023/03/17 08:03:53;;;;;;;3.28;1.63;;;;;;;;;;5005319;28;20491;-85
2023/03/17 08:06:20;;;;;;;1.98;0.98;;;;;;;;;;5005230;28;21968;-85
2023/03/17 08:08:46;;;;;;;1.63;1.02;;;;;;;;;;5007909;28;20418;-85
2023/03/17 08:11:12;;;;;;;2.85;1.48;;;;;;;;;;5002563;28;20037;-83
2023/03/17 08:13:38;;;;;;;0.98;0.80;;;;;;;;;;5002317;28;20374;-86
2023/03/17 08:16:05;;;;;;;1.08;0.98;;;;;;;;;;5004042;28;20037;-85
2023/03/17 08:18:32;;;;;;;2.05;1.00;;;;;;;;;;5005211;28;20030;-86
2023/03/17 08:21:01;;;;;;;1.52;1.00;;;;;;;;;;5004298;28;20022;-83
2023/03/17 08:23:26;;;;;;;5.65;1.38;;;;;;;;;;5003199;28;20120;-84
2023/03/17 08:25:57;;;;;;;1.98;1.50;;;;;;;;;;5006361;28;20069;-84
2023/03/17 08:28:23;;;;;;;0.77;0.75;;;;;;;;;;5004545;28;20037;-85
2023/03/17 08:30:52;;;;;;;1.30;1.00;;;;;;;;;;5004328;28;20045;-87
2023/03/17 08:33:18;;;;;;;1.52;1.20;;;;;;;;;;5000606;28;20185;-85
2023/03/17 08:35:46;;;;;;;1.25;0.93;;;;;;;;;;5009469;28;20749;-83
2023/03/17 08:38:12;;;;;;;2.10;1.15;;;;;;;;;;5003487;28;20026;-84
2023/03/17 08:40:39;;;;;;;2.08;0.98;;;;;;;;;;5004923;28;20081;-84
2023/03/17 08:43:08;;;;;;;1.35;1.05;;;;;;;;;;5000608;28;20397;-83
2023/03/17 08:45:37;;;;;;;2.40;1.00;;;;;;;;;;5001425;28;20033;-86
2023/03/17 08:48:03;;;;;;;6.10;1.23;;;;;;;;;;5006443;28;20041;-85
2023/03/17 08:50:29;;;;;;;1.40;0.90;;;;;;;;;;5005342;28;20030;-83
2023/03/17 08:52:55;;;;;;;1.70;1.05;;;;;;;;;;5003274;28;20037;-84
2023/03/17 08:55:24;;;;;;;1.20;0.90;;;;;;;;;;5000336;28;20448;-83
2023/03/17 08:57:50;;;;;;;3.30;1.15;;;;;;;;;;5004667;28;20025;-83
2023/03/17 09:00:19;;;;;;;6.20;1.05;;;;;;;;;;5010270;28;20305;-81
2023/03/17 09:02:45;;;;;;;1.98;1.00;;;;;;;;;;5009053;28;20014;-84
2023/03/17 09:05:14;;;;;;;1.05;0.95;;;;;;;;;;5004440;28;20029;-84
2023/03/17 09:10:45;;;;;;;0.70;0.70;;;;;;;;;;5002823;28;20084;-85
2023/03/17 09:13:11;;;;;;;2.95;1.27;;;;;;;;;;5013099;28;20045;-86
2023/03/17 09:15:37;;;;;;;1.85;1.40;;;;;;;;;;5009423;28;20104;-84
2023/03/17 09:18:04;;;;;;;1.13;1.02;;;;;;;;;;5003750;28;20456;-88
2023/03/17 09:20:30;;;;;;;1.67;1.13;;;;;;;;;;5006818;28;20049;-82
2023/03/17 09:22:56;;;;;;;2.00;1.25;;;;;;;;;;4996481;28;20536;-82
2023/03/17 09:25:22;;;;;;;1.15;1.00;;;;;;;;;;5007213;28;20403;-82
2023/03/17 09:27:48;;;;;;;2.22;1.10;;;;;;;;;;5001436;28;20038;-83
2023/03/17 09:30:16;;;;;;;1.67;0.80;;;;;;;;;;5002745;28;20393;-81
2023/03/17 09:32:43;;;;;;;2.85;1.13;;;;;;;;;;5001471;28;20041;-81
2023/03/17 09:35:12;;;;;;;3.53;1.88;;;;;;;;;;5003611;28;20771;-82
2023/03/17 09:37:50;;;;;;;2.78;1.10;;;;;;;;;;4999364;28;20038;-80
2023/03/17 09:40:17;;;;;;;1.77;1.20;;;;;;;;;;5004607;28;20109;-81
2023/03/17 09:42:53;;;;;;;2.45;0.90;;;;;;;;;;5005101;28;20113;-83
2023/03/17 09:45:26;;;;;;;2.33;1.00;;;;;;;;;;5002912;28;20038;-81
2023/03/17 09:47:52;;;;;;;0.52;0.52;;;;;;;;;;4996690;28;20158;-80
2023/03/17 09:50:30;;;;;;;1.60;1.00;;;;;;;;;;5002685;28;20133;-82
2023/03/17 09:52:57;;;;;;;1.20;1.10;;;;;;;;;;5003588;28;20029;-83
2023/03/17 09:55:30;;;;;;;2.33;0.90;;;;;;;;;;5004861;28;20420;-79
2023/03/17 09:57:57;;;;;;;1.17;0.85;;;;;;;;;;5003485;28;20048;-82
2023/03/17 10:00:27;;;;;;;3.47;1.42;;;;;;;;;;4997123;28;20049;-82
2023/03/17 10:02:53;;;;;;;1.83;1.15;;;;;;;;;;5003748;28;20037;-80
2023/03/17 10:05:21;;;;;;;3.22;1.40;;;;;;;;;;5002393;28;20026;-81
2023/03/17 10:07:55;;;;;;;1.33;1.20;;;;;;;;;;5003723;28;20034;-78
2023/03/17 10:10:21;;;;;;;6.70;1.20;;;;;;;;;;5000150;28;20018;-78
2023/03/17 10:13:07;;;;;;;1.20;1.08;;;;;;;;;;4997805;28;20030;-77
2023/03/17 10:15:49;;;;;;;2.97;1.00;;;;;;;;;;4995806;28;20026;-79
2023/03/17 10:18:17;;;;;;;1.20;0.95;;;;;;;;;;5000877;28;20061;-84
2023/03/17 10:20:51;;;;;;;0.75;0.75;;;;;;;;;;4998798;28;20129;-81
2023/03/17 10:23:20;;;;;;;1.20;1.10;;;;;;;;;;4999229;28;20137;-83
2023/03/17 10:25:47;;;;;;;1.23;1.05;;;;;;;;;;4997199;28;20037;-80
2023/03/17 10:28:23;;;;;;;1.13;1.02;;;;;;;;;;4995693;28;20056;-79
2023/03/17 10:30:49;;;;;;;1.77;1.02;;;;;;;;;;4991210;28;20547;-85
2023/03/17 10:33:15;;;;;;;2.92;1.20;;;;;;;;;;4996119;28;20082;-80
2023/03/17 10:35:43;;;;;;;1.38;0.85;;;;;;;;;;4993149;28;20488;-80
2023/03/17 10:38:17;;;;;;;1.15;0.73;;;;;;;;;;4995582;28;20037;-84
2023/03/17 10:40:47;;;;;;;1.48;1.05;;;;;;;;;;5000688;28;20041;-87
2023/03/17 10:43:18;;;;;;;2.00;1.00;;;;;;;;;;4998926;28;20123;-85
2023/03/17 10:45:57;;;;;;;1.42;0.93;;;;;;;;;;4995772;28;20113;-82
2023/03/17 10:48:23;;;;;;;0.80;0.70;;;;;;;;;;5001808;28;20123;-91
2023/03/17 10:50:49;;;;;;;3.03;1.60;;;;;;;;;;5000451;28;20190;-83
2023/03/17 10:53:19;;;;;;;1.75;1.10;;;;;;;;;;4996736;28;20088;-79
2023/03/17 10:55:49;;;;;;;1.05;0.77;;;;;;;;;;4992420;28;20030;-79
2023/03/17 10:58:15;;;;;;;1.15;1.00;;;;;;;;;;4998336;28;20037;-80
2023/03/17 11:00:53;;;;;;;1.00;0.90;;;;;;;;;;5002263;28;20080;-80
2023/03/17 11:03:27;;;;;;;1.10;0.80;;;;;;;;;;4997197;28;20077;-86
2023/03/17 11:05:57;;;;;;;2.55;1.00;;;;;;;;;;4999878;28;20026;-81
2023/03/17 11:08:23;;;;;;;2.10;1.00;;;;;;;;;;5005620;28;20593;-82
2023/03/17 11:10:54;;;;;;;3.20;1.10;;;;;;;;;;5002192;28;20288;-81
2023/03/17 11:13:20;;;;;;;0.82;0.82;;;;;;;;;;5000627;28;20031;-77
2023/03/17 11:15:49;;;;;;;1.88;1.20;;;;;;;;;;4996534;28;20030;-85
2023/03/17 11:18:19;;;;;;;1.02;0.82;;;;;;;;;;5001045;28;20033;-90
2023/03/17 11:20:48;;;;;;;2.45;1.23;;;;;;;;;;4999906;28;20053;-77
2023/03/17 11:23:22;;;;;;;2.33;1.30;;;;;;;;;;4994818;28;20025;-84
2023/03/17 11:25:53;;;;;;;2.60;1.00;;;;;;;;;;4997387;28;20056;-88
2023/03/17 11:28:23;;;;;;;1.33;0.90;;;;;;;;;;5006630;28;20518;-79
2023/03/17 11:30:56;;;;;;;1.40;0.70;;;;;;;;;;5004429;28;20364;-79
2023/03/17 11:33:25;;;;;;;1.30;0.75;;;;;;;;;;5003725;28;20140;-79
2023/03/17 11:35:56;;;;;;;1.17;0.80;;;;;;;;;;5007410;28;20022;-79
2023/03/17 11:38:27;;;;;;;2.83;1.20;;;;;;;;;;5006475;28;20037;-81
2023/03/17 11:41:16;;;;;;;1.30;1.10;;;;;;;;;;5006245;28;20479;-82
2023/03/17 11:43:54;;;;;;;2.40;1.30;;;;;;;;;;5003187;28;20050;-80
2023/03/17 11:46:26;;;;;;;2.20;1.00;;;;;;;;;;5016325;28;20100;-77
2023/03/17 11:49:00;;;;;;;1.30;0.75;;;;;;;;;;5015947;28;20061;-83
2023/03/17 11:51:29;;;;;;;1.85;1.00;;;;;;;;;;5018896;28;20644;-83
2023/03/17 11:54:17;;;;;;;1.80;1.02;;;;;;;;;;5014519;28;20033;-86
2023/03/17 11:56:51;;;;;;;1.15;0.90;;;;;;;;;;5026214;28;20464;-84
2023/03/17 11:59:17;;;;;;;1.42;0.93;;;;;;;;;;5023486;28;20017;-82
2023/03/17 12:01:46;;;;;;;1.30;1.00;;;;;;;;;;5014477;28;20515;-86
2023/03/17 12:04:12;;;;;;;0.85;0.80;;;;;;;;;;5017198;28;20038;-84
2023/03/17 12:06:44;;;;;;;1.65;1.10;;;;;;;;;;5010489;28;20028;-87
2023/03/17 12:09:25;;;;;;;1.77;1.00;;;;;;;;;;5010677;28;20030;-84
2023/03/17 12:11:51;;;;;;;1.40;1.20;;;;;;;;;;5030741;28;20037;-86
2023/03/17 12:14:26;;;;;;;1.30;0.82;;;;;;;;;;5018486;28;20026;-85
2023/03/17 12:16:55;;;;;;;1.80;0.90;;;;;;;;;;5008396;28;20558;-88
2023/03/17 12:19:27;;;;;;;2.50;0.85;;;;;;;;;;5003633;28;20049;-85
2023/03/17 12:21:54;;;;;;;;;;;;;;;;;;5005014;28;20082;-82
2023/03/17 12:24:23;;;;;;;0.75;0.75;;;;;;;;;;5010480;28;19909;-83
2023/03/17 12:27:01;;;;;;;1.27;0.85;;;;;;;;;;5004013;28;20025;-82
2023/03/17 12:29:48;;;;;;;2.33;1.00;;;;;;;;;;5007606;28;20032;-81
2023/03/17 12:32:33;;;;;;;1.10;0.85;;;;;;;;;;5005747;28;20436;-82
2023/03/17 12:35:06;;;;;;;1.17;0.70;;;;;;;;;;5003181;28;20446;-84
2023/03/17 12:37:32;;;;;;;0.90;0.80;;;;;;;;;;5005013;28;20041;-82
2023/03/17 12:40:11;;;;;;;0.85;0.73;;;;;;;;;;5010058;28;20037;-81
2023/03/17 12:42:37;;;;;;;4.75;1.17;;;;;;;;;;5006519;28;20036;-81
2023/03/17 12:45:30;;;;;;;0.95;0.93;;;;;;;;;;5006380;28;20030;-83
2023/03/17 12:47:56;;;;;;;1.92;0.85;;;;;;;;;;5003205;28;20543;-87
2023/03/17 12:50:34;;;;;;;0.88;0.68;;;;;;;;;;5006563;28;20026;-85
2023/03/17 12:53:03;;;;;;;3.00;1.30;;;;;;;;;;5003521;28;20239;-86
2023/03/17 12:55:31;;;;;;;0.90;0.80;;;;;;;;;;5014088;28;20037;-87
2023/03/17 12:58:00;;;;;;;0.82;0.80;;;;;;;;;;5030345;28;20025;-85
2023/03/17 13:00:28;;;;;;;1.52;0.90;;;;;;;;;;5009632;28;20468;-88
2023/03/17 13:03:12;;;;;;;1.25;0.70;;;;;;;;;;5003850;28;20038;-88
2023/03/17 13:05:38;;;;;;;2.85;0.90;;;;;;;;;;5011220;28;20049;-84
2023/03/17 13:08:09;;;;;;;0.80;0.80;;;;;;;;;;5020563;28;20080;-84
2023/03/17 13:10:40;;;;;;;1.15;0.75;;;;;;;;;;5004508;28;20030;-87
2023/03/17 13:13:09;;;;;;;2.22;1.00;;;;;;;;;;5001540;28;20036;-78
2023/03/17 13:15:37;;;;;;;0.70;0.70;;;;;;;;;;5002497;28;20037;-86
2023/03/17 13:18:15;;;;;;;1.55;0.80;;;;;;;;;;5008397;28;20121;-77
2023/03/17 13:20:42;;;;;;;3.35;1.10;;;;;;;;;;5006463;28;20022;-79
2023/03/17 13:23:13;;;;;;;0.65;0.65;;;;;;;;;;5008370;28;20117;-80
2023/03/17 13:25:40;;;;;;;0.93;0.80;;;;;;;;;;5004032;28;20116;-81
2023/03/17 13:28:25;;;;;;;2.08;1.02;;;;;;;;;;5005565;28;20489;-80
2023/03/17 13:30:51;;;;;;;1.30;0.80;;;;;;;;;;5001390;28;20030;-80
2023/03/17 13:33:22;;;;;;;3.92;1.13;;;;;;;;;;5006488;28;20033;-81
2023/03/17 13:36:07;;;;;;;3.63;1.20;;;;;;;;;;5013640;28;20452;-80
2023/03/17 13:38:41;;;;;;;1.63;1.00;;;;;;;;;;5003716;28;20611;-81
2023/03/17 13:41:07;;;;;;;1.20;1.10;;;;;;;;;;5002906;28;20557;-78
2023/03/17 13:43:38;;;;;;;0.63;0.63;;;;;;;;;;5008645;28;20443;-83
2023/03/17 13:46:23;;;;;;;3.55;1.15;;;;;;;;;;4988507;28;20481;-81
2023/03/17 13:48:56;;;;;;;3.30;1.77;;;;;;;;;;5006096;28;20080;-80
2023/03/17 13:51:32;;;;;;;1.48;1.30;;;;;;;;;;5003865;28;20037;-80
2023/03/17 13:54:09;;;;;;;1.80;1.20;;;;;;;;;;5014903;28;20030;-82
2023/03/17 13:56:44;;;;;;;5.45;1.50;;;;;;;;;;5001543;28;20084;-82
2023/03/17 13:59:20;;;;;;;2.70;1.20;;;;;;;;;;5007498;28;20030;-82
2023/03/17 14:01:53;;;;;;;5.60;1.50;;;;;;;;;;5008513;28;20549;-84
2023/03/17 14:04:25;;;;;;;2.42;1.10;;;;;;;;;;5010308;28;20540;-84
2023/03/17 14:06:54;;;;;;;1.10;1.00;;;;;;;;;;5003813;28;20400;-81
2023/03/17 14:09:24;;;;;;;6.00;1.58;;;;;;;;;;5002939;28;20258;-79
2023/03/17 14:11:50;;;;;;;1.83;1.35;;;;;;;;;;5003371;28;20041;-89
2023/03/17 14:14:28;;;;;;;2.25;1.38;;;;;;;;;;5003284;28;20032;-82
2023/03/17 14:17:00;;;;;;;2.85;1.38;;;;;;;;;;4999896;28;20036;-88
2023/03/17 14:19:27;;;;;;;4.10;1.48;;;;;;;;;;4998594;28;20716;-81
2023/03/17 14:21:53;;;;;;;2.25;1.25;;;;;;;;;;5004379;28;20413;-81
2023/03/17 14:24:21;;;;;;;2.28;1.40;;;;;;;;;;5003622;28;20048;-83
2023/03/17 14:26:47;;;;;;;2.67;1.35;;;;;;;;;;5004235;28;20057;-83
2023/03/17 14:29:14;;;;;;;2.17;1.20;;;;;;;;;;4996228;28;20104;-79
2023/03/17 14:31:41;;;;;;;1.98;1.20;;;;;;;;;;5004547;28;20026;-81
2023/03/17 14:34:13;;;;;;;6.00;1.58;;;;;;;;;;5002989;28;20037;-79
2023/03/17 14:36:39;;;;;;;2.00;1.13;;;;;;;;;;5006263;28;20021;-77
2023/03/17 14:39:06;;;;;;;3.38;1.17;;;;;;;;;;5002691;28;20026;-78
2023/03/17 14:41:33;;;;;;;5.00;1.48;;;;;;;;;;5003296;28;20060;-77
2023/03/17 14:44:00;;;;;;;3.10;1.38;;;;;;;;;;4997431;28;20536;-81
2023/03/17 14:46:37;;;;;;;2.70;1.50;;;;;;;;;;5006207;28;20799;-80
2023/03/17 14:49:03;;;;;;;1.15;1.00;;;;;;;;;;5004536;28;20084;-81
2023/03/17 14:51:38;;;;;;;1.25;1.00;;;;;;;;;;5017666;28;20041;-80
2023/03/17 14:54:19;;;;;;;3.10;1.70;;;;;;;;;;5027863;28;20101;-81